createdAt,value
2019-02-24T00:00:20.778Z,55.04
2019-02-24T00:02:47.999Z,55.08
2019-02-24T00:05:15.412Z,55.29
2019-02-24T00:07:42.625Z,55.33
2019-02-24T00:10:09.816Z,55.35
2019-02-24T00:12:37.071Z,55.06
2019-02-24T00:15:04.615Z,54.93
2019-02-24T00:17:31.800Z,54.81
2019-02-24T00:19:59.037Z,54.88
2019-02-24T00:22:26.238Z,54.79
2019-02-24T00:24:53.439Z,54.79
2019-02-24T00:27:20.722Z,54.74
2019-02-24T00:29:48.104Z,54.70
2019-02-24T00:32:15.294Z,54.74
2019-02-24T00:34:42.538Z,54.73
2019-02-24T00:37:09.755Z,54.74
2019-02-24T00:39:37.072Z,54.91
2019-02-24T00:42:04.374Z,55.18
2019-02-24T00:44:31.551Z,55.59
2019-02-24T00:46:58.775Z,55.87
2019-02-24T00:49:26.001Z,55.84
2019-02-24T00:51:53.230Z,55.94
2019-02-24T00:54:20.422Z,56.29
2019-02-24T00:56:47.615Z,56.49
2019-02-24T00:59:14.823Z,56.71
2019-02-24T01:01:41.968Z,56.89
2019-02-24T01:04:09.194Z,56.90
2019-02-24T01:06:36.643Z,56.89
2019-02-24T01:09:04.901Z,56.92
2019-02-24T01:11:32.237Z,56.87
2019-02-24T01:13:59.481Z,56.98
2019-02-24T01:16:26.750Z,57.13
2019-02-24T01:18:54.105Z,57.23
2019-02-24T01:21:21.404Z,57.38
2019-02-24T01:23:48.727Z,57.38
2019-02-24T01:26:16.065Z,57.62
2019-02-24T01:28:43.297Z,57.76
2019-02-24T01:31:10.521Z,57.81
2019-02-24T01:33:38.140Z,57.80
2019-02-24T01:36:05.337Z,57.91
2019-02-24T01:38:32.547Z,57.91
2019-02-24T01:40:59.781Z,57.83
2019-02-24T01:43:26.960Z,57.91
2019-02-24T01:45:54.207Z,57.83
2019-02-24T01:48:21.391Z,57.81
2019-02-24T01:50:48.634Z,57.84
2019-02-24T01:53:15.863Z,57.80
2019-02-24T01:55:43.098Z,57.70
2019-02-24T01:58:10.295Z,57.87
2019-02-24T02:00:37.551Z,57.87
2019-02-24T02:03:04.762Z,57.95
2019-02-24T02:05:32.060Z,57.87
2019-02-24T02:07:59.238Z,58.13
2019-02-24T02:10:26.431Z,58.13
2019-02-24T02:12:53.700Z,58.26
2019-02-24T02:15:21.067Z,58.36
2019-02-24T02:17:48.260Z,58.36
2019-02-24T02:20:15.503Z,58.29
2019-02-24T02:22:42.710Z,58.49
2019-02-24T02:25:10.056Z,58.62
2019-02-24T02:27:37.241Z,58.91
2019-02-24T02:30:05.030Z,58.91
2019-02-24T02:32:32.333Z,58.91
2019-02-24T02:34:59.515Z,59.04
2019-02-24T02:37:26.695Z,59.13
2019-02-24T02:39:53.896Z,59.22
2019-02-24T02:42:21.079Z,59.24
2019-02-24T02:44:48.350Z,59.19
2019-02-24T02:47:15.532Z,59.44
2019-02-24T02:49:42.743Z,59.60
2019-02-24T02:52:10.051Z,59.58
2019-02-24T02:54:37.322Z,60.02
2019-02-24T02:57:04.702Z,59.75
2019-02-24T02:59:31.947Z,59.43
2019-02-24T03:01:59.150Z,59.34
2019-02-24T03:04:26.375Z,58.72
2019-02-24T03:07:22.485Z,59.16
2019-02-24T03:09:49.659Z,59.16
2019-02-24T03:12:16.832Z,59.06
2019-02-24T03:14:44.063Z,58.89
2019-02-24T03:17:11.452Z,59.06
2019-02-24T03:19:38.627Z,58.66
2019-02-24T03:22:05.837Z,58.66
2019-02-24T03:24:33.187Z,58.78
2019-02-24T03:27:00.412Z,58.68
2019-02-24T03:29:27.614Z,58.68
2019-02-24T03:31:54.929Z,58.43
2019-02-24T03:34:22.122Z,58.67
2019-02-24T03:36:49.316Z,58.43
2019-02-24T03:39:16.561Z,58.46
2019-02-24T03:41:43.812Z,58.46
2019-02-24T03:44:11.047Z,58.49
2019-02-24T03:46:38.231Z,58.49
2019-02-24T03:49:05.440Z,59.41
2019-02-24T03:51:32.639Z,59.24
2019-02-24T03:53:59.822Z,59.57
2019-02-24T03:56:27.063Z,59.73
2019-02-24T03:58:54.247Z,59.77
2019-02-24T04:01:21.475Z,59.87
2019-02-24T04:03:48.699Z,59.98
2019-02-24T04:06:15.918Z,59.83
2019-02-24T04:08:43.091Z,59.26
2019-02-24T04:11:10.278Z,59.00
2019-02-24T04:13:37.489Z,58.91
2019-02-24T04:16:04.783Z,58.77
2019-02-24T04:18:31.995Z,58.77
2019-02-24T04:20:59.266Z,59.07
2019-02-24T04:23:26.519Z,59.07
2019-02-24T04:25:53.807Z,58.80
2019-02-24T04:28:21.025Z,58.90
2019-02-24T04:30:48.218Z,58.86
2019-02-24T04:33:15.477Z,58.99
2019-02-24T04:35:42.750Z,58.91
2019-02-24T04:38:09.924Z,58.67
2019-02-24T04:40:37.114Z,58.39
2019-02-24T04:43:04.478Z,58.27
2019-02-24T04:45:31.649Z,58.27
2019-02-24T04:47:58.886Z,58.47
2019-02-24T04:50:26.134Z,58.62
2019-02-24T04:52:53.354Z,58.98
2019-02-24T04:55:20.609Z,59.29
2019-02-24T04:57:47.815Z,59.29
2019-02-24T05:00:15.060Z,59.32
2019-02-24T05:02:42.222Z,59.52
2019-02-24T05:05:09.450Z,59.43
2019-02-24T05:07:36.764Z,59.45
2019-02-24T05:10:04.479Z,59.45
2019-02-24T05:12:31.755Z,60.18
2019-02-24T05:14:59.143Z,59.60
2019-02-24T05:17:26.374Z,60.01
2019-02-24T05:19:53.537Z,60.01
2019-02-24T05:22:20.762Z,59.45
2019-02-24T05:24:47.942Z,60.15
2019-02-24T05:27:15.167Z,60.15
2019-02-24T05:29:45.822Z,59.85
2019-02-24T05:32:11.604Z,59.79
2019-02-24T05:34:38.829Z,59.98
2019-02-24T05:37:06.063Z,59.88
2019-02-24T05:39:33.247Z,59.88
2019-02-24T05:42:00.438Z,59.82
2019-02-24T05:44:27.702Z,59.82
2019-02-24T05:46:54.865Z,59.76
2019-02-24T05:49:23.685Z,60.10
2019-02-24T05:51:51.040Z,59.81
2019-02-24T05:54:18.384Z,58.58
2019-02-24T05:56:45.621Z,58.58
2019-02-24T05:59:12.975Z,58.70
2019-02-24T06:01:40.211Z,58.64
2019-02-24T06:04:07.498Z,58.93
2019-02-24T06:06:34.773Z,59.17
2019-02-24T06:09:05.048Z,59.17
2019-02-24T06:11:35.273Z,59.24
2019-02-24T06:14:04.791Z,59.33
2019-02-24T06:16:34.210Z,59.61
2019-02-24T06:19:03.775Z,59.61
2019-02-24T06:21:31.183Z,59.44
2019-02-24T06:23:58.413Z,59.44
2019-02-24T06:26:25.641Z,58.82
2019-02-24T06:28:52.825Z,58.82
2019-02-24T06:31:20.035Z,59.09
2019-02-24T06:33:47.256Z,58.96
2019-02-24T06:36:14.474Z,58.96
2019-02-24T06:38:41.649Z,59.23
2019-02-24T06:41:08.889Z,58.95
2019-02-24T06:43:36.099Z,58.74
2019-02-24T06:46:03.414Z,58.74
2019-02-24T06:48:30.592Z,58.60
2019-02-24T06:51:00.570Z,58.41
2019-02-24T06:53:27.799Z,59.07
2019-02-24T06:55:55.027Z,59.07
2019-02-24T06:58:22.408Z,59.05
2019-02-24T07:00:50.856Z,57.79
2019-02-24T07:03:18.725Z,57.79
2019-02-24T07:05:46.029Z,57.51
2019-02-24T07:08:13.447Z,57.29
2019-02-24T07:10:40.711Z,56.94
2019-02-24T07:13:07.916Z,56.54
2019-02-24T07:15:35.154Z,56.38
2019-02-24T07:18:02.347Z,56.38
2019-02-24T07:20:29.659Z,56.26
2019-02-24T07:22:57.038Z,56.17
2019-02-24T07:25:24.241Z,56.05
2019-02-24T07:27:51.438Z,59.14
2019-02-24T07:30:23.495Z,59.67
2019-02-24T07:32:47.775Z,57.99
2019-02-24T07:35:15.005Z,57.55
2019-02-24T07:37:42.230Z,57.63
2019-02-24T07:40:09.489Z,57.63
2019-02-24T07:42:36.669Z,57.46
2019-02-24T07:45:03.911Z,57.41
2019-02-24T07:47:31.431Z,57.32
2019-02-24T07:49:58.618Z,57.33
2019-02-24T07:52:25.844Z,57.24
2019-02-24T07:54:53.026Z,56.73
2019-02-24T07:57:20.236Z,56.73
2019-02-24T07:59:47.432Z,56.86
2019-02-24T08:02:14.626Z,56.86
2019-02-24T08:04:41.822Z,56.84
2019-02-24T08:07:09.018Z,56.72
2019-02-24T08:09:36.234Z,56.53
2019-02-24T08:12:04.375Z,57.28
2019-02-24T08:14:31.692Z,57.75
2019-02-24T08:16:59.028Z,57.75
2019-02-24T08:19:26.393Z,56.82
2019-02-24T08:21:54.073Z,57.05
2019-02-24T08:24:21.592Z,57.05
2019-02-24T08:26:48.796Z,56.96
2019-02-24T08:29:16.059Z,57.12
2019-02-24T08:31:43.819Z,56.95
2019-02-24T08:34:11.050Z,57.12
2019-02-24T08:36:38.318Z,56.51
2019-02-24T08:39:05.690Z,56.18
2019-02-24T08:41:32.999Z,56.18
2019-02-24T08:44:00.205Z,55.83
2019-02-24T08:46:27.556Z,55.44
2019-02-24T08:48:54.729Z,55.35
2019-02-24T08:51:23.421Z,55.12
2019-02-24T08:53:50.730Z,54.94
2019-02-24T08:56:17.940Z,54.71
2019-02-24T08:58:45.189Z,54.55
2019-02-24T09:01:12.460Z,54.45
2019-02-24T09:03:39.685Z,54.46
2019-02-24T09:06:06.918Z,54.26
2019-02-24T09:08:34.179Z,54.02
2019-02-24T09:11:02.303Z,53.81
2019-02-24T09:13:34.487Z,53.78
2019-02-24T09:16:01.821Z,54.08
2019-02-24T09:18:29.154Z,54.33
2019-02-24T09:20:58.231Z,54.33
2019-02-24T09:23:27.170Z,54.20
2019-02-24T09:25:54.477Z,54.09
2019-02-24T09:28:21.756Z,54.02
2019-02-24T09:30:48.999Z,53.97
2019-02-24T09:33:16.267Z,54.02
2019-02-24T09:35:43.447Z,54.03
2019-02-24T09:38:10.737Z,53.87
2019-02-24T09:40:37.902Z,53.84
2019-02-24T09:43:05.091Z,53.93
2019-02-24T09:45:32.303Z,53.74
2019-02-24T09:47:59.518Z,53.61
2019-02-24T09:50:26.759Z,53.45
2019-02-24T09:52:54.022Z,53.26
2019-02-24T09:55:21.235Z,53.17
2019-02-24T09:57:48.552Z,53.03
2019-02-24T10:00:15.950Z,52.92
2019-02-24T10:02:43.154Z,52.85
2019-02-24T10:05:10.339Z,52.72
2019-02-24T10:07:37.622Z,52.67
2019-02-24T10:10:04.842Z,52.62
2019-02-24T10:12:32.001Z,52.56
2019-02-24T10:14:59.631Z,52.43
2019-02-24T10:17:26.843Z,52.39
2019-02-24T10:19:54.084Z,52.33
2019-02-24T10:22:21.333Z,52.23
2019-02-24T10:24:48.551Z,52.22
2019-02-24T10:27:15.765Z,52.30
2019-02-24T10:29:43.020Z,52.19
2019-02-24T10:32:10.239Z,52.01
2019-02-24T10:34:37.439Z,51.96
2019-02-24T10:37:04.689Z,51.88
2019-02-24T10:39:31.930Z,51.83
2019-02-24T10:41:59.101Z,51.78
2019-02-24T10:44:26.411Z,51.66
2019-02-24T10:46:53.585Z,51.56
2019-02-24T10:49:20.753Z,51.45
2019-02-24T10:51:47.952Z,51.37
2019-02-24T10:54:15.158Z,51.37
2019-02-24T10:56:42.390Z,51.34
2019-02-24T10:59:10.028Z,51.29
2019-02-24T11:01:37.371Z,51.21
2019-02-24T11:04:04.719Z,51.13
2019-02-24T11:06:31.936Z,51.05
2019-02-24T11:08:59.088Z,50.89
2019-02-24T11:11:26.317Z,51.10
2019-02-24T11:13:53.698Z,51.25
2019-02-24T11:16:20.945Z,51.13
2019-02-24T11:18:48.249Z,50.94
2019-02-24T11:21:15.547Z,50.78
2019-02-24T11:23:42.966Z,50.66
2019-02-24T11:26:10.169Z,50.82
2019-02-24T11:28:37.382Z,50.95
2019-02-24T11:31:04.592Z,50.87
2019-02-24T11:33:31.835Z,50.75
2019-02-24T11:35:59.109Z,50.57
2019-02-24T11:38:26.255Z,50.34
2019-02-24T11:40:53.629Z,50.38
2019-02-24T11:43:20.898Z,50.44
2019-02-24T11:45:48.137Z,50.48
2019-02-24T11:48:15.280Z,50.61
2019-02-24T11:50:42.457Z,50.49
2019-02-24T11:53:09.761Z,50.30
2019-02-24T11:55:38.645Z,50.12
2019-02-24T11:58:06.142Z,50.08
2019-02-24T12:00:33.535Z,50.23
2019-02-24T12:03:00.850Z,50.42
2019-02-24T12:05:28.230Z,50.52
2019-02-24T12:07:55.527Z,50.59
2019-02-24T12:10:22.779Z,50.42
2019-02-24T12:12:50.133Z,50.16
2019-02-24T12:15:17.314Z,50.13
2019-02-24T12:17:44.696Z,50.11
2019-02-24T12:20:11.970Z,50.04
2019-02-24T12:22:39.171Z,50.00
2019-02-24T12:25:06.823Z,49.93
2019-02-24T12:27:33.962Z,49.70
2019-02-24T12:30:01.165Z,49.76
2019-02-24T12:32:28.338Z,49.78
2019-02-24T12:34:55.598Z,49.71
2019-02-24T12:37:22.800Z,49.65
2019-02-24T12:39:50.022Z,49.52
2019-02-24T12:42:17.262Z,49.42
2019-02-24T12:44:44.454Z,49.29
2019-02-24T12:47:11.659Z,49.20
2019-02-24T12:49:38.943Z,49.83
2019-02-24T12:52:06.150Z,49.97
2019-02-24T12:54:33.326Z,50.00
2019-02-24T12:57:00.554Z,49.99
2019-02-24T12:59:27.749Z,49.80
2019-02-24T13:01:54.963Z,49.57
2019-02-24T13:04:22.151Z,49.54
2019-02-24T13:06:49.394Z,49.41
2019-02-24T13:09:16.581Z,49.31
2019-02-24T13:11:43.743Z,49.29
2019-02-24T13:14:11.051Z,49.15
2019-02-24T13:16:38.353Z,49.30
2019-02-24T13:19:05.566Z,49.40
2019-02-24T13:21:33.455Z,49.35
2019-02-24T13:24:00.897Z,49.18
2019-02-24T13:26:28.189Z,49.24
2019-02-24T13:28:55.475Z,49.18
2019-02-24T13:31:22.685Z,49.09
2019-02-24T13:33:50.136Z,49.01
2019-02-24T13:36:17.377Z,48.92
2019-02-24T13:38:44.605Z,48.85
2019-02-24T13:41:11.872Z,48.86
2019-02-24T13:43:39.194Z,48.79
2019-02-24T13:46:06.432Z,48.67
2019-02-24T13:48:33.630Z,48.46
2019-02-24T13:51:01.602Z,48.36
2019-02-24T13:53:31.123Z,48.22
2019-02-24T13:55:58.483Z,48.06
2019-02-24T13:58:25.735Z,47.94
2019-02-24T14:00:54.696Z,47.74
2019-02-24T14:03:22.090Z,47.65
2019-02-24T14:05:49.475Z,47.62
2019-02-24T14:08:16.659Z,47.68
2019-02-24T14:10:43.840Z,47.68
2019-02-24T14:13:11.024Z,47.65
2019-02-24T14:15:38.246Z,47.54
2019-02-24T14:18:05.638Z,47.40
2019-02-24T14:20:32.855Z,47.04
2019-02-24T14:23:00.139Z,46.20
2019-02-24T14:25:27.497Z,45.63
2019-02-24T14:27:54.815Z,45.24
2019-02-24T14:30:22.896Z,44.63
2019-02-24T14:32:50.218Z,44.37
2019-02-24T14:35:17.511Z,44.57
2019-02-24T14:37:46.841Z,44.54
2019-02-24T14:40:15.565Z,44.63
2019-02-24T14:42:45.085Z,44.67
2019-02-24T14:45:14.091Z,44.79
2019-02-24T14:47:41.365Z,44.72
2019-02-24T14:50:08.822Z,44.69
2019-02-24T14:52:36.276Z,44.70
2019-02-24T14:55:03.758Z,44.85
2019-02-24T14:57:30.978Z,44.84
2019-02-24T14:59:58.147Z,44.77
2019-02-24T15:02:25.425Z,44.74
2019-02-24T15:04:52.655Z,44.76
2019-02-24T15:07:19.959Z,44.62
2019-02-24T15:09:47.144Z,44.53
2019-02-24T15:12:14.398Z,44.43
2019-02-24T15:14:41.646Z,44.35
2019-02-24T15:17:08.860Z,44.17
2019-02-24T15:22:02.943Z,43.92
2019-02-24T15:24:30.153Z,43.88
2019-02-24T15:26:57.504Z,43.77
2019-02-24T15:29:24.769Z,43.64
2019-02-24T15:31:52.226Z,43.53
2019-02-24T15:34:19.619Z,43.35
2019-02-24T15:36:46.859Z,43.26
2019-02-24T15:39:14.031Z,43.35
2019-02-24T15:41:41.307Z,43.46
2019-02-24T15:44:10.136Z,43.57
2019-02-24T15:46:38.355Z,43.74
2019-02-24T15:49:05.575Z,43.48
2019-02-24T15:51:32.887Z,43.62
2019-02-24T15:54:00.076Z,44.13
2019-02-24T15:56:27.283Z,44.41
2019-02-24T15:58:54.525Z,44.63
2019-02-24T16:01:21.803Z,44.77
2019-02-24T16:03:49.060Z,44.91
2019-02-24T16:06:18.032Z,45.10
2019-02-24T16:08:45.540Z,45.24
2019-02-24T16:11:12.890Z,45.54
2019-02-24T16:13:40.082Z,45.75
2019-02-24T16:16:07.306Z,45.87
2019-02-24T16:18:34.498Z,46.06
2019-02-24T16:21:01.699Z,46.22
2019-02-24T16:23:29.015Z,46.41
2019-02-24T16:25:56.214Z,46.62
2019-02-24T16:28:23.395Z,46.77
2019-02-24T16:30:50.747Z,46.89
2019-02-24T16:33:17.896Z,47.00
2019-02-24T16:35:45.163Z,47.15
2019-02-24T16:38:12.331Z,47.41
2019-02-24T16:40:39.729Z,47.60
2019-02-24T16:43:07.107Z,47.67
2019-02-24T16:45:34.294Z,47.78
2019-02-24T16:48:01.499Z,48.01
2019-02-24T16:50:28.742Z,48.15
2019-02-24T16:52:56.063Z,48.23
2019-02-24T16:55:23.283Z,48.21
2019-02-24T16:57:50.469Z,48.23
2019-02-24T17:00:18.358Z,48.28
2019-02-24T17:02:45.920Z,48.35
2019-02-24T17:05:13.164Z,48.39
2019-02-24T17:07:40.395Z,48.50
2019-02-24T17:10:08.752Z,48.63
2019-02-24T17:12:35.965Z,48.79
2019-02-24T17:15:03.759Z,48.92
2019-02-24T17:17:31.076Z,48.92
2019-02-24T17:19:58.368Z,49.00
2019-02-24T17:22:25.781Z,49.15
2019-02-24T17:25:03.169Z,49.27
2019-02-24T17:27:36.794Z,49.38
2019-02-24T17:30:05.530Z,49.51
2019-02-24T17:32:32.950Z,49.59
2019-02-24T17:35:00.320Z,49.68
2019-02-24T17:37:27.557Z,49.77
2019-02-24T17:39:54.987Z,49.85
2019-02-24T17:42:22.373Z,49.95
2019-02-24T17:44:49.722Z,50.00
2019-02-24T17:47:17.042Z,49.68
2019-02-24T17:49:44.360Z,49.52
2019-02-24T17:52:11.530Z,49.30
2019-02-24T17:54:38.755Z,49.31
2019-02-24T17:57:06.130Z,49.59
2019-02-24T17:59:40.239Z,49.78
2019-02-24T18:02:03.169Z,49.92
2019-02-24T18:04:30.336Z,50.09
2019-02-24T18:06:57.566Z,50.24
2019-02-24T18:09:24.751Z,50.30
2019-02-24T18:11:51.946Z,50.41
2019-02-24T18:14:19.158Z,50.51
2019-02-24T18:16:46.360Z,50.60
2019-02-24T18:19:13.548Z,50.67
2019-02-24T18:21:40.752Z,50.67
2019-02-24T18:24:07.975Z,50.73
2019-02-24T18:26:40.058Z,50.83
2019-02-24T18:29:07.880Z,50.82
2019-02-24T18:31:35.279Z,50.86
2019-02-24T18:34:02.543Z,50.85
2019-02-24T18:36:29.708Z,50.95
2019-02-24T18:38:59.324Z,50.93
2019-02-24T18:41:26.946Z,50.97
2019-02-24T18:43:54.437Z,51.03
2019-02-24T18:46:21.979Z,50.89
2019-02-24T18:48:49.254Z,50.94
2019-02-24T18:51:16.579Z,51.13
2019-02-24T18:53:43.774Z,51.07
2019-02-24T18:56:10.971Z,51.14
2019-02-24T18:58:38.172Z,51.12
2019-02-24T19:01:05.415Z,51.35
2019-02-24T19:03:32.723Z,51.41
2019-02-24T19:05:59.903Z,51.49
2019-02-24T19:08:27.066Z,51.58
2019-02-24T19:10:54.294Z,51.67
2019-02-24T19:13:21.509Z,51.57
2019-02-24T19:15:48.695Z,51.12
2019-02-24T19:18:16.009Z,51.03
2019-02-24T19:20:43.307Z,50.86
2019-02-24T19:23:10.493Z,50.93
2019-02-24T19:25:37.672Z,51.10
2019-02-24T19:28:04.894Z,51.18
2019-02-24T19:30:32.049Z,51.28
2019-02-24T19:32:59.290Z,51.37
2019-02-24T19:35:26.509Z,51.43
2019-02-24T19:37:53.687Z,51.52
2019-02-24T19:40:20.885Z,51.57
2019-02-24T19:42:48.057Z,51.65
2019-02-24T19:45:15.978Z,51.73
2019-02-24T19:47:43.144Z,51.75
2019-02-24T19:50:11.820Z,51.78
2019-02-24T19:52:39.018Z,51.89
2019-02-24T19:55:07.050Z,51.93
2019-02-24T19:57:34.224Z,52.00
2019-02-24T20:00:01.402Z,52.00
2019-02-24T20:02:28.604Z,52.04
2019-02-24T20:04:55.747Z,52.11
2019-02-24T20:07:22.922Z,52.16
2019-02-24T20:09:50.118Z,52.20
2019-02-24T20:12:17.252Z,52.23
2019-02-24T20:14:44.504Z,52.27
2019-02-24T20:17:11.702Z,52.33
2019-02-24T20:19:38.918Z,52.42
2019-02-24T20:22:06.081Z,52.45
2019-02-24T20:24:33.336Z,52.39
2019-02-24T20:27:00.470Z,52.37
2019-02-24T20:29:27.665Z,52.42
2019-02-24T20:31:54.834Z,52.52
2019-02-24T20:34:25.450Z,52.58
2019-02-24T20:36:51.253Z,52.56
2019-02-24T20:39:18.429Z,52.60
2019-02-24T20:41:45.611Z,52.64
2019-02-24T20:44:12.846Z,52.67
2019-02-24T20:46:39.997Z,52.72
2019-02-24T20:49:07.209Z,52.70
2019-02-24T20:51:34.423Z,52.78
2019-02-24T20:54:01.555Z,52.83
2019-02-24T20:56:28.751Z,52.84
2019-02-24T20:58:55.978Z,52.88
2019-02-24T21:01:23.161Z,52.94
2019-02-24T21:03:50.369Z,52.93
2019-02-24T21:06:17.573Z,52.99
2019-02-24T21:08:44.888Z,53.06
2019-02-24T21:11:12.099Z,53.15
2019-02-24T21:13:39.242Z,53.18
2019-02-24T21:16:06.437Z,53.25
2019-02-24T21:18:33.593Z,53.31
2019-02-24T21:21:00.842Z,53.20
2019-02-24T21:23:28.037Z,53.27
2019-02-24T21:25:55.270Z,53.30
2019-02-24T21:28:22.452Z,53.30
2019-02-24T21:30:49.664Z,53.33
2019-02-24T21:33:16.989Z,53.39
2019-02-24T21:35:44.181Z,53.51
2019-02-24T21:38:11.378Z,53.56
2019-02-24T21:40:38.542Z,53.56
2019-02-24T21:43:05.796Z,53.62
2019-02-24T21:45:32.952Z,53.60
2019-02-24T21:48:00.166Z,53.55
2019-02-24T21:50:27.356Z,53.59
2019-02-24T21:52:54.586Z,53.59
2019-02-24T21:55:21.797Z,53.62
2019-02-24T21:57:49.127Z,53.67
2019-02-24T22:00:17.996Z,53.74
2019-02-24T22:02:45.226Z,53.72
2019-02-24T22:05:12.492Z,53.74
2019-02-24T22:07:39.665Z,53.78
2019-02-24T22:10:07.862Z,53.77
2019-02-24T22:12:35.076Z,53.73
2019-02-24T22:15:02.258Z,53.75
2019-02-24T22:17:29.450Z,53.71
2019-02-24T22:19:56.641Z,53.71
2019-02-24T22:22:23.866Z,53.76
2019-02-24T22:24:51.058Z,53.81
2019-02-24T22:27:18.249Z,53.81
2019-02-24T22:29:45.478Z,53.85
2019-02-24T22:32:12.728Z,53.81
2019-02-24T22:34:39.911Z,53.78
2019-02-24T22:37:07.077Z,53.84
2019-02-24T22:39:34.294Z,53.85
2019-02-24T22:42:01.456Z,53.88
2019-02-24T22:44:28.732Z,53.88
2019-02-24T22:46:55.983Z,53.87
2019-02-24T22:49:23.158Z,53.91
2019-02-24T22:51:50.331Z,53.93
2019-02-24T22:54:17.534Z,53.95
2019-02-24T22:56:44.744Z,54.11
2019-02-24T22:59:11.919Z,53.99
2019-02-24T23:01:39.671Z,53.95
2019-02-24T23:04:08.993Z,53.98
2019-02-24T23:06:36.231Z,53.94
2019-02-24T23:09:04.977Z,53.99
2019-02-24T23:11:32.158Z,53.93
2019-02-24T23:13:59.351Z,53.94
2019-02-24T23:16:26.557Z,54.01
2019-02-24T23:18:53.770Z,53.92
2019-02-24T23:21:21.005Z,53.89
2019-02-24T23:23:48.285Z,53.96
2019-02-24T23:26:15.506Z,54.02
2019-02-24T23:28:42.699Z,54.03
2019-02-24T23:31:09.940Z,54.08
2019-02-24T23:33:37.126Z,54.13
2019-02-24T23:36:04.511Z,54.33
2019-02-24T23:38:31.733Z,54.01
2019-02-24T23:40:58.950Z,54.01
2019-02-24T23:43:26.168Z,54.11
2019-02-24T23:45:53.338Z,54.17
2019-02-24T23:48:20.565Z,54.15
2019-02-24T23:50:47.767Z,54.16
2019-02-24T23:53:14.994Z,54.14
2019-02-24T23:55:42.271Z,54.12
2019-02-24T23:58:09.437Z,53.84
